Time;durP1;ratioP1;P1;durP2;ratioP2;P2;SDS_P1;SDS_P2;PMS_P1;PMS_P2;Temp;Humidity;BMP_temperature;BMP_pressure;BME280_temperature;BME280_humidity;BME280_pressure;Samples;Min_cycle;Max_cycle;Signal;HPM_P1;HPM_P2
2022/02/23 00:01:54;;;;;;;3.08;1.52;;;9.70;78.50;;;;;;4811946;29;20038;-88
2022/02/23 00:04:29;;;;;;;4.18;1.60;;;9.70;78.50;;;;;;4811811;29;20045;-89
2022/02/23 00:07:01;;;;;;;2.63;1.50;;;9.70;78.40;;;;;;4826301;29;20499;-89
2022/02/23 00:09:27;;;;;;;4.32;1.55;;;9.70;78.50;;;;;;4827449;29;20445;-90
2022/02/23 00:11:55;;;;;;;1.33;1.17;;;9.60;78.40;;;;;;4811002;29;20121;-89
2022/02/23 00:14:26;;;;;;;1.67;1.30;;;9.60;78.40;;;;;;4826802;29;20395;-88
2022/02/23 00:16:58;;;;;;;2.45;1.65;;;9.60;78.40;;;;;;4828253;29;20064;-89
2022/02/23 00:19:27;;;;;;;3.15;1.58;;;9.60;78.40;;;;;;4811709;29;20038;-88
2022/02/23 00:22:08;;;;;;;4.93;1.75;;;9.60;78.40;;;;;;4812026;29;20109;-89
2022/02/23 00:24:36;;;;;;;4.05;1.60;;;9.50;78.50;;;;;;4825542;29;20042;-89
2022/02/23 00:27:05;;;;;;;3.90;1.50;;;9.60;78.40;;;;;;4810615;29;20036;-88
2022/02/23 00:29:35;;;;;;;3.30;1.48;;;9.50;78.40;;;;;;4810494;29;20023;-87
2022/02/23 00:32:07;;;;;;;4.93;1.50;;;9.50;78.50;;;;;;4815753;29;20026;-89
2022/02/23 00:34:37;;;;;;;2.90;1.40;;;9.50;78.50;;;;;;4831517;29;20106;-89
2022/02/23 00:37:06;;;;;;;3.88;1.70;;;9.50;78.50;;;;;;4810684;29;20039;-88
2022/02/23 00:39:32;;;;;;;3.17;1.40;;;9.50;78.50;;;;;;4809550;29;20027;-88
2022/02/23 00:42:01;;;;;;;2.53;1.30;;;9.50;78.50;;;;;;4825136;29;20038;-89
2022/02/23 00:44:32;;;;;;;3.35;2.10;;;9.40;78.40;;;;;;4795502;29;20047;-88
2022/02/23 00:47:23;;;;;;;3.80;1.67;;;9.40;78.50;;;;;;4809651;29;20129;-88
2022/02/23 00:49:59;;;;;;;4.13;1.52;;;9.40;78.60;;;;;;4813419;29;20471;-88
2022/02/23 00:52:33;;;;;;;4.10;1.60;;;9.40;78.40;;;;;;4795519;29;20540;-88
2022/02/23 00:55:09;;;;;;;4.25;1.75;;;9.40;78.50;;;;;;4810929;29;20035;-88
2022/02/23 00:57:37;;;;;;;3.25;1.60;;;9.40;78.50;;;;;;4809381;29;20042;-89
2022/02/23 01:00:12;;;;;;;3.65;1.50;;;9.30;78.40;;;;;;4810447;29;20061;-88
2022/02/23 01:02:49;;;;;;;4.63;1.67;;;9.30;78.50;;;;;;4824962;29;20034;-89
2022/02/23 01:05:19;;;;;;;3.08;1.60;;;9.30;78.50;;;;;;4824756;29;20452;-89
2022/02/23 01:08:03;;;;;;;;;;;;;;;;;;;;;
2022/02/23 01:10:30;;;;;;;3.25;1.60;;;9.30;78.50;;;;;;4825531;29;20038;-88
2022/02/23 01:12:58;;;;;;;5.03;1.85;;;9.30;78.50;;;;;;4809383;29;20075;-88
2022/02/23 01:15:24;;;;;;;3.63;1.50;;;9.20;78.50;;;;;;4824232;29;20490;-88
2022/02/23 01:17:53;;;;;;;3.63;1.60;;;9.30;78.50;;;;;;4823880;29;20038;-88
2022/02/23 01:20:24;;;;;;;4.07;1.55;;;9.20;78.50;;;;;;4810598;29;20107;-89
2022/02/23 01:22:55;;;;;;;4.18;1.60;;;9.20;78.50;;;;;;4812400;29;20050;-90
2022/02/23 01:25:29;;;;;;;3.28;1.70;;;9.20;78.50;;;;;;4828136;29;20046;-88
2022/02/23 01:28:04;;;;;;;1.67;1.27;;;9.20;78.50;;;;;;4813988;29;20030;-88
2022/02/23 01:30:44;;;;;;;3.55;1.40;;;9.20;78.50;;;;;;4813030;29;20087;-88
2022/02/23 01:33:13;;;;;;;2.92;1.70;;;9.20;78.50;;;;;;4827339;29;20107;-89
2022/02/23 01:35:44;;;;;;;5.78;1.80;;;9.20;78.50;;;;;;4813309;29;20145;-89
2022/02/23 01:38:19;;;;;;;2.47;1.60;;;9.20;78.50;;;;;;4797085;29;20034;-89
2022/02/23 01:40:46;;;;;;;4.57;1.52;;;9.20;78.50;;;;;;4827147;29;20034;-88
2022/02/23 01:43:15;;;;;;;3.33;1.50;;;9.10;78.50;;;;;;4811595;29;20382;-88
2022/02/23 01:45:46;;;;;;;3.97;1.60;;;9.10;78.50;;;;;;4811681;29;20038;-89
2022/02/23 01:48:24;;;;;;;3.20;1.63;;;9.10;78.50;;;;;;4826973;29;20180;-88
2022/02/23 01:50:59;;;;;;;3.78;1.77;;;9.10;78.50;;;;;;4827008;29;20392;-88
2022/02/23 01:53:27;;;;;;;3.47;1.45;;;9.10;78.50;;;;;;4812360;29;20144;-88
2022/02/23 01:55:55;;;;;;;2.72;1.63;;;9.10;78.50;;;;;;4826995;29;20030;-88
2022/02/23 01:58:27;;;;;;;4.40;1.58;;;9.00;78.50;;;;;;4811820;29;20041;-90
2022/02/23 02:01:03;;;;;;;;;;;;;;;;;;;;;
2022/02/23 02:03:31;;;;;;;1.40;1.25;;;9.00;78.50;;;;;;4827104;29;20050;-89
2022/02/23 02:06:03;;;;;;;2.88;1.40;;;9.00;78.50;;;;;;4811667;29;20408;-88
2022/02/23 02:08:36;;;;;;;2.78;1.50;;;9.00;78.70;;;;;;4811852;29;20038;-88
2022/02/23 02:11:02;;;;;;;3.42;1.63;;;9.00;78.50;;;;;;4827717;29;20054;-88
2022/02/23 02:13:28;;;;;;;4.50;1.45;;;9.00;78.50;;;;;;4811564;29;20117;-88
2022/02/23 02:16:04;;;;;;;;;;;;;;;;;;;;;
2022/02/23 02:18:31;;;;;;;4.28;1.95;;;8.90;78.50;;;;;;4827667;29;20027;-90
2022/02/23 02:21:02;;;;;;;3.25;1.50;;;8.90;78.50;;;;;;4812890;29;20512;-88
2022/02/23 02:23:29;;;;;;;2.92;1.67;;;8.90;78.50;;;;;;4811164;29;20070;-88
2022/02/23 02:25:58;;;;;;;3.13;1.50;;;8.90;78.60;;;;;;4811142;29;20083;-88
2022/02/23 02:28:26;;;;;;;2.67;1.60;;;8.90;78.50;;;;;;4811737;29;20111;-87
2022/02/23 02:30:52;;;;;;;2.58;1.30;;;8.90;78.50;;;;;;4796617;29;20058;-88
2022/02/23 02:33:18;;;;;;;4.13;1.50;;;8.90;78.50;;;;;;4825232;29;20480;-89
2022/02/23 02:35:47;;;;;;;3.05;1.63;;;8.90;78.50;;;;;;4811675;29;20026;-87
2022/02/23 02:38:13;;;;;;;3.97;1.52;;;8.80;78.50;;;;;;4826789;29;20026;-88
2022/02/23 02:40:39;;;;;;;2.40;1.50;;;8.80;79.10;;;;;;4811931;29;20046;-88
2022/02/23 02:43:08;;;;;;;3.42;1.63;;;8.80;78.50;;;;;;4795824;29;20140;-87
2022/02/23 02:45:34;;;;;;;2.45;1.63;;;8.80;78.50;;;;;;4811340;29;20046;-87
2022/02/23 02:48:01;;;;;;;3.78;1.25;;;8.80;78.50;;;;;;4825987;29;20482;-88
2022/02/23 02:50:27;;;;;;;4.00;1.75;;;8.80;78.50;;;;;;4810965;29;20431;-88
2022/02/23 02:52:59;;;;;;;4.85;1.60;;;8.80;78.50;;;;;;4826456;29;20034;-88
2022/02/23 02:55:27;;;;;;;3.33;1.40;;;8.80;78.50;;;;;;4832033;29;20042;-89
2022/02/23 02:57:55;;;;;;;3.47;1.50;;;8.80;78.50;;;;;;4805721;29;20041;-89
2022/02/23 03:00:24;;;;;;;4.40;1.70;;;8.70;78.40;;;;;;4833283;29;20457;-89
2022/02/23 03:02:58;;;;;;;5.82;2.08;;;8.70;78.50;;;;;;4828515;29;20030;-88
2022/02/23 03:05:38;;;;;;;3.88;1.48;;;8.70;78.50;;;;;;4811799;29;20046;-88
2022/02/23 03:08:06;;;;;;;2.20;1.30;;;8.70;78.50;;;;;;4810486;29;20034;-88
2022/02/23 03:10:35;;;;;;;3.72;1.75;;;8.70;78.50;;;;;;4810595;29;20124;-88
2022/02/23 03:13:06;;;;;;;2.65;1.40;;;8.70;78.50;;;;;;4826443;29;20030;-89
2022/02/23 03:15:35;;;;;;;1.77;1.40;;;8.60;78.50;;;;;;4796838;29;20191;-88
2022/02/23 03:18:04;;;;;;;1.75;1.20;;;8.60;78.50;;;;;;4810427;29;20027;-88
2022/02/23 03:20:33;;;;;;;5.15;1.90;;;8.60;78.50;;;;;;4810016;29;20030;-89
2022/02/23 03:23:12;;;;;;;1.50;1.40;;;8.60;78.50;;;;;;4812226;29;20072;-89
2022/02/23 03:25:40;;;;;;;2.17;1.30;;;8.60;78.50;;;;;;4829339;29;20163;-88
2022/02/23 03:28:06;;;;;;;2.75;1.42;;;8.60;78.50;;;;;;4783464;29;20133;-88
2022/02/23 03:30:34;;;;;;;1.50;1.35;;;8.50;79.10;;;;;;4828132;29;20079;-88
2022/02/23 03:33:09;;;;;;;2.65;1.42;;;8.50;78.40;;;;;;4812717;29;20083;-89
2022/02/23 03:35:45;;;;;;;2.63;1.25;;;8.50;78.50;;;;;;4827327;29;20475;-89
2022/02/23 03:38:17;;;;;;;2.17;1.25;;;8.50;78.50;;;;;;4811185;29;20132;-89
2022/02/23 03:40:43;;;;;;;2.28;1.30;;;8.50;78.50;;;;;;4828260;29;20038;-88
2022/02/23 03:43:17;;;;;;;3.47;1.40;;;8.50;78.50;;;;;;4812710;29;20034;-89
2022/02/23 03:45:46;;;;;;;2.45;1.50;;;8.50;78.60;;;;;;4813870;29;20033;-89
2022/02/23 03:48:21;;;;;;;1.92;1.35;;;8.40;78.50;;;;;;4827975;29;20116;-88
2022/02/23 03:50:49;;;;;;;;;;;8.40;78.50;;;;;;4814129;29;20033;-87
2022/02/23 03:53:19;;;;;;;2.35;1.50;;;8.40;78.50;;;;;;4812493;29;19912;-89
2022/02/23 03:55:50;;;;;;;3.28;1.48;;;8.40;78.40;;;;;;4812914;29;20452;-88
2022/02/23 03:58:18;;;;;;;1.67;1.20;;;8.30;78.50;;;;;;4828348;29;20559;-88
2022/02/23 04:00:47;;;;;;;2.90;1.45;;;8.30;78.60;;;;;;4828067;29;20041;-89
2022/02/23 04:03:13;;;;;;;2.40;1.42;;;8.30;78.60;;;;;;4797779;29;20042;-89
2022/02/23 04:05:39;;;;;;;2.85;1.48;;;8.30;78.60;;;;;;4812101;29;20490;-88
2022/02/23 04:08:07;;;;;;;2.47;1.63;;;8.30;78.60;;;;;;4812670;29;20060;-88
2022/02/23 04:10:36;;;;;;;2.42;1.42;;;8.30;78.50;;;;;;4812342;29;20435;-89
2022/02/23 04:13:07;;;;;;;1.95;1.30;;;8.20;78.50;;;;;;4828369;29;20057;-89
2022/02/23 04:15:35;;;;;;;2.13;1.40;;;8.30;79.20;;;;;;4812673;29;20059;-88
2022/02/23 04:18:06;;;;;;;3.55;1.42;;;8.20;78.50;;;;;;4812982;29;20029;-88
2022/02/23 04:20:36;;;;;;;3.25;1.67;;;8.20;78.50;;;;;;4828085;29;20038;-88
2022/02/23 04:23:10;;;;;;;2.35;1.40;;;8.20;78.50;;;;;;4812741;29;20096;-88
2022/02/23 04:25:46;;;;;;;2.38;1.48;;;8.20;78.60;;;;;;4828998;29;20046;-89
2022/02/23 04:28:24;;;;;;;;;;;;;;;;;;;;;
2022/02/23 04:30:53;;;;;;;2.25;1.40;;;8.20;78.50;;;;;;4827949;29;20467;-88
2022/02/23 04:33:19;;;;;;;1.92;1.50;;;8.20;78.50;;;;;;4812275;29;20038;-87
2022/02/23 04:35:50;;;;;;;1.92;1.50;;;8.20;78.50;;;;;;4828157;29;20471;-88
2022/02/23 04:38:24;;;;;;;1.55;1.20;;;8.10;78.50;;;;;;4827440;29;20034;-88
2022/02/23 04:40:50;;;;;;;2.03;1.40;;;8.10;78.60;;;;;;4827732;29;20113;-88
2022/02/23 04:43:18;;;;;;;2.65;1.60;;;8.10;78.50;;;;;;4827518;29;20037;-88
2022/02/23 04:45:44;;;;;;;1.98;1.50;;;8.10;78.50;;;;;;4827958;29;20038;-88
2022/02/23 04:48:10;;;;;;;4.20;1.70;;;8.10;78.50;;;;;;4812025;29;20078;-88
2022/02/23 04:50:36;;;;;;;1.55;1.40;;;8.10;78.60;;;;;;4812269;29;20033;-88
2022/02/23 04:53:10;;;;;;;3.28;1.50;;;8.10;78.50;;;;;;4827459;29;20432;-88
2022/02/23 04:55:44;;;;;;;1.75;1.33;;;8.00;78.60;;;;;;4829500;29;20112;-88
2022/02/23 04:58:09;;;;;;;3.88;1.80;;;8.00;78.50;;;;;;4831280;29;20041;-88
2022/02/23 05:00:37;;;;;;;4.15;1.77;;;8.00;78.50;;;;;;4815633;29;20034;-88
2022/02/23 05:03:06;;;;;;;2.25;1.50;;;8.00;78.60;;;;;;4847011;29;20083;-88
2022/02/23 05:05:32;;;;;;;2.13;1.38;;;8.00;78.60;;;;;;4815664;29;20037;-88
2022/02/23 05:08:01;;;;;;;2.83;1.63;;;8.00;78.60;;;;;;4816145;29;20026;-89
2022/02/23 05:10:27;;;;;;;2.90;1.80;;;7.90;78.50;;;;;;4830657;29;20066;-88
2022/02/23 05:13:02;;;;;;;2.95;1.52;;;7.90;78.50;;;;;;4816787;29;20022;-89
2022/02/23 05:15:30;;;;;;;4.25;1.85;;;7.90;78.50;;;;;;4830448;29;20329;-88
2022/02/23 05:17:59;;;;;;;2.40;1.52;;;7.90;78.50;;;;;;4815936;29;20026;-88
2022/02/23 05:20:27;;;;;;;3.70;1.70;;;7.90;78.50;;;;;;4830560;29;20070;-88
2022/02/23 05:23:06;;;;;;;1.83;1.50;;;7.90;78.50;;;;;;4815549;29;20026;-88
2022/02/23 05:25:35;;;;;;;2.75;1.60;;;7.90;78.60;;;;;;4830841;29;20436;-88
2022/02/23 05:28:02;;;;;;;2.60;1.73;;;7.80;78.50;;;;;;4815489;29;20073;-88
2022/02/23 05:30:30;;;;;;;3.10;1.60;;;7.80;78.50;;;;;;4814908;29;20022;-89
2022/02/23 05:33:01;;;;;;;3.30;1.60;;;7.80;78.60;;;;;;4815408;29;20034;-88
2022/02/23 05:35:30;;;;;;;2.80;1.67;;;7.80;78.60;;;;;;4801642;29;20090;-87
2022/02/23 05:38:01;;;;;;;2.80;1.85;;;7.80;78.60;;;;;;4846853;29;20030;-87
2022/02/23 05:40:30;;;;;;;3.72;2.00;;;7.80;78.60;;;;;;4830410;29;20045;-80
2022/02/23 05:42:55;;;;;;;3.65;1.88;;;7.80;78.50;;;;;;4829781;29;20037;-85
2022/02/23 05:45:22;;;;;;;2.70;1.85;;;7.70;78.50;;;;;;4815088;29;20046;-83
2022/02/23 05:47:48;;;;;;;2.40;1.60;;;7.70;78.60;;;;;;4814453;29;20041;-83
2022/02/23 05:50:14;;;;;;;3.80;1.83;;;7.70;78.50;;;;;;4829946;29;20034;-82
2022/02/23 05:52:40;;;;;;;2.33;1.80;;;7.70;78.50;;;;;;4846191;29;20026;-85
2022/02/23 05:55:06;;;;;;;3.90;1.90;;;7.70;78.50;;;;;;4799818;29;20038;-86
2022/02/23 05:57:33;;;;;;;2.58;1.95;;;7.70;78.60;;;;;;4814762;29;20026;-84
2022/02/23 05:59:59;;;;;;;3.28;1.83;;;7.60;78.50;;;;;;4846617;29;20033;-84
2022/02/23 06:02:25;;;;;;;3.88;1.90;;;7.60;78.50;;;;;;4829943;29;20472;-87
2022/02/23 06:04:54;;;;;;;3.47;1.75;;;7.60;78.60;;;;;;4830223;29;20046;-86
2022/02/23 06:07:20;;;;;;;4.03;1.80;;;7.60;78.50;;;;;;4814564;29;20566;-87
2022/02/23 06:09:46;;;;;;;4.40;2.15;;;7.60;78.50;;;;;;4829877;29;20083;-85
2022/02/23 06:12:12;;;;;;;1.73;1.40;;;7.60;78.60;;;;;;4814475;29;20038;-86
2022/02/23 06:14:38;;;;;;;2.55;1.88;;;7.60;78.50;;;;;;4829414;29;20029;-87
2022/02/23 06:17:04;;;;;;;2.65;1.70;;;7.60;78.60;;;;;;4830114;29;20052;-82
2022/02/23 06:19:30;;;;;;;3.28;1.80;;;7.60;78.50;;;;;;4814589;29;20079;-86
2022/02/23 06:21:56;;;;;;;4.30;1.70;;;7.60;78.60;;;;;;4814784;29;20030;-79
2022/02/23 06:24:22;;;;;;;2.83;1.55;;;7.50;78.50;;;;;;4826509;29;20127;-79
2022/02/23 06:26:48;;;;;;;2.95;1.70;;;7.50;78.50;;;;;;4825514;29;20106;-80
2022/02/23 06:29:14;;;;;;;2.88;1.80;;;7.50;78.60;;;;;;4810748;29;20043;-79
2022/02/23 06:31:40;;;;;;;2.70;1.67;;;7.50;78.50;;;;;;4825599;29;20034;-79
2022/02/23 06:34:08;;;;;;;2.20;1.60;;;7.50;78.60;;;;;;4825670;29;20050;-79
2022/02/23 06:36:33;;;;;;;2.70;2.00;;;7.50;78.60;;;;;;4825337;29;20508;-78
2022/02/23 06:38:59;;;;;;;2.47;1.60;;;7.50;78.60;;;;;;4826075;29;20126;-80
2022/02/23 06:41:26;;;;;;;2.78;1.65;;;7.40;78.60;;;;;;4810393;29;20070;-79
2022/02/23 06:43:53;;;;;;;2.38;1.77;;;7.40;78.60;;;;;;4810135;29;20083;-80
2022/02/23 06:46:20;;;;;;;4.22;1.75;;;7.40;78.60;;;;;;4826014;29;20038;-79
2022/02/23 06:48:47;;;;;;;2.45;1.50;;;7.40;78.60;;;;;;4810433;29;20030;-79
2022/02/23 06:51:18;;;;;;;5.78;1.80;;;7.40;78.60;;;;;;4825197;29;20070;-80
2022/02/23 06:53:47;;;;;;;2.53;1.63;;;7.40;78.60;;;;;;4825510;29;20468;-79
2022/02/23 06:56:14;;;;;;;4.32;2.00;;;7.40;78.70;;;;;;4826222;29;20043;-79
2022/02/23 06:58:46;;;;;;;3.10;2.33;;;7.40;78.60;;;;;;4810037;29;20109;-83
2022/02/23 07:01:16;;;;;;;3.88;1.90;;;7.30;78.60;;;;;;4825216;29;20034;-80
2022/02/23 07:03:43;;;;;;;3.35;2.00;;;7.30;78.60;;;;;;4824981;29;20073;-80
2022/02/23 07:06:09;;;;;;;2.78;1.90;;;7.30;78.60;;;;;;4825229;29;20518;-79
2022/02/23 07:08:35;;;;;;;2.47;1.55;;;7.30;78.70;;;;;;4810007;29;20114;-80
2022/02/23 07:11:01;;;;;;;3.42;2.05;;;7.30;78.60;;;;;;4826032;29;20037;-83
2022/02/23 07:13:26;;;;;;;2.80;1.80;;;7.30;78.60;;;;;;4810261;29;20119;-80
2022/02/23 07:15:52;;;;;;;3.30;2.03;;;7.30;78.70;;;;;;4825371;29;20026;-81
2022/02/23 07:18:18;;;;;;;3.45;1.90;;;7.30;78.70;;;;;;4809643;29;20050;-80
2022/02/23 07:20:43;;;;;;;3.45;1.85;;;7.30;78.70;;;;;;4825250;29;20070;-80
2022/02/23 07:23:09;;;;;;;3.22;1.88;;;7.30;78.70;;;;;;4809599;29;20082;-81
2022/02/23 07:25:35;;;;;;;2.42;1.67;;;7.30;78.70;;;;;;4809708;29;20433;-80
2022/02/23 07:28:01;;;;;;;4.22;1.95;;;7.20;78.70;;;;;;4826128;29;20125;-81
2022/02/23 07:30:27;;;;;;;2.90;1.63;;;7.20;78.70;;;;;;4809539;29;20449;-79
2022/02/23 07:32:53;;;;;;;3.50;1.70;;;7.20;78.70;;;;;;4809315;29;20035;-81
2022/02/23 07:35:19;;;;;;;3.97;1.75;;;7.20;78.70;;;;;;4794982;29;20034;-81
2022/02/23 07:37:46;;;;;;;3.42;1.65;;;7.20;78.70;;;;;;4809445;29;20125;-80
2022/02/23 07:40:18;;;;;;;2.53;1.70;;;7.20;78.70;;;;;;4808949;29;20050;-80
2022/02/23 07:42:44;;;;;;;3.13;1.58;;;7.20;78.70;;;;;;4809292;29;20072;-81
2022/02/23 07:45:10;;;;;;;2.85;1.63;;;7.20;78.70;;;;;;4825450;29;20061;-80
2022/02/23 07:47:37;;;;;;;2.63;1.70;;;7.20;78.80;;;;;;4809155;29;20099;-81
2022/02/23 07:50:08;;;;;;;3.17;1.88;;;7.20;78.80;;;;;;4809690;29;20080;-80
2022/02/23 07:52:34;;;;;;;2.10;1.60;;;7.20;78.80;;;;;;4824554;29;20529;-77
2022/02/23 07:55:00;;;;;;;2.60;1.73;;;7.20;78.80;;;;;;4809167;29;20038;-79
2022/02/23 07:57:26;;;;;;;2.22;1.70;;;7.20;78.80;;;;;;4824308;29;20038;-79
2022/02/23 07:59:51;;;;;;;3.15;1.90;;;7.10;78.70;;;;;;4809710;29;20037;-81
2022/02/23 08:02:17;;;;;;;2.25;1.77;;;7.20;78.90;;;;;;4809477;29;20031;-81
2022/02/23 08:04:44;;;;;;;1.98;1.70;;;7.10;78.80;;;;;;4824824;29;20044;-80
2022/02/23 08:07:10;;;;;;;2.88;1.90;;;7.10;78.80;;;;;;4824861;29;20038;-80
2022/02/23 08:09:36;;;;;;;3.10;1.85;;;7.10;78.80;;;;;;4824134;29;20034;-79
2022/02/23 08:12:03;;;;;;;3.00;1.83;;;7.20;78.90;;;;;;4808805;29;20037;-79
2022/02/23 08:14:29;;;;;;;2.30;1.63;;;7.10;78.90;;;;;;4794271;29;20496;-80
2022/02/23 08:19:39;;;;;;;2.67;1.70;;;7.20;78.90;;;;;;4823873;29;20114;-80
2022/02/23 08:22:13;;;;;;;2.25;1.63;;;7.10;78.80;;;;;;4809025;29;20062;-83
2022/02/23 08:24:46;;;;;;;1.77;1.50;;;7.10;78.90;;;;;;4808695;29;20050;-82
2022/02/23 08:27:23;;;;;;;3.50;2.03;;;7.10;78.90;;;;;;4824619;29;20034;-80
2022/02/23 08:29:49;;;;;;;2.53;1.90;;;7.10;78.90;;;;;;4808712;29;20117;-86
2022/02/23 08:32:18;;;;;;;2.30;1.55;;;7.10;78.90;;;;;;4824515;29;20105;-80
2022/02/23 08:34:49;;;;;;;2.72;1.67;;;7.10;78.90;;;;;;4823775;29;20034;-80
2022/02/23 08:37:16;;;;;;;2.47;1.90;;;7.10;78.90;;;;;;4809355;29;20034;-84
2022/02/23 08:39:42;;;;;;;2.08;1.80;;;7.10;78.90;;;;;;4809215;29;20058;-82
2022/02/23 08:42:10;;;;;;;2.30;1.70;;;7.10;79.00;;;;;;4825025;29;20030;-83
2022/02/23 08:44:36;;;;;;;1.88;1.60;;;7.10;79.00;;;;;;4825186;29;20099;-83
2022/02/23 08:47:03;;;;;;;3.50;2.00;;;7.10;79.00;;;;;;4825187;29;20035;-85
2022/02/23 08:49:29;;;;;;;2.30;1.65;;;7.20;79.00;;;;;;4824534;29;20042;-83
2022/02/23 08:51:55;;;;;;;4.45;1.70;;;7.20;79.00;;;;;;4824289;29;20038;-84
2022/02/23 08:54:21;;;;;;;2.80;1.90;;;7.20;79.00;;;;;;4794286;29;20034;-82
2022/02/23 08:56:48;;;;;;;1.60;1.50;;;7.20;79.00;;;;;;4809239;29;20031;-83
2022/02/23 08:59:14;;;;;;;3.33;2.00;;;7.20;79.10;;;;;;4809203;29;20049;-83
2022/02/23 09:01:41;;;;;;;2.75;1.73;;;7.20;79.00;;;;;;4824269;29;20058;-84
2022/02/23 09:04:07;;;;;;;1.95;1.55;;;7.20;79.00;;;;;;4824177;29;20051;-82
2022/02/23 09:06:35;;;;;;;1.88;1.52;;;7.20;79.00;;;;;;4824003;29;20133;-83
2022/02/23 09:09:06;;;;;;;2.67;1.70;;;7.20;79.10;;;;;;4823825;29;20033;-83
2022/02/23 09:11:32;;;;;;;2.53;1.90;;;7.20;79.10;;;;;;4823879;29;20159;-83
2022/02/23 09:13:59;;;;;;;6.47;2.00;;;7.30;79.20;;;;;;4808689;29;20050;-83
2022/02/23 09:16:25;;;;;;;4.55;2.03;;;7.20;79.10;;;;;;4808776;29;20418;-83
2022/02/23 09:18:51;;;;;;;3.03;1.95;;;7.30;79.20;;;;;;4809619;29;20054;-85
2022/02/23 09:21:17;;;;;;;2.55;1.67;;;7.30;79.20;;;;;;4824609;29;20502;-84
2022/02/23 09:23:43;;;;;;;2.03;1.77;;;7.30;79.20;;;;;;4823639;29;20054;-84
2022/02/23 09:26:09;;;;;;;2.90;2.00;;;7.30;79.20;;;;;;4808059;29;20042;-84
2022/02/23 09:28:37;;;;;;;2.38;1.83;;;7.40;79.20;;;;;;4824087;29;20062;-84
2022/02/23 09:31:08;;;;;;;2.63;1.83;;;7.40;79.20;;;;;;4824886;29;20038;-84
2022/02/23 09:33:37;;;;;;;3.22;1.92;;;7.40;79.20;;;;;;4824188;29;20048;-83
2022/02/23 09:36:04;;;;;;;3.40;2.00;;;7.50;79.20;;;;;;4793731;29;20044;-83
2022/02/23 09:38:33;;;;;;;4.25;1.90;;;7.50;79.20;;;;;;4793840;29;20077;-84
2022/02/23 09:41:00;;;;;;;3.33;2.10;;;7.50;79.20;;;;;;4794316;29;20490;-84
2022/02/23 09:43:30;;;;;;;3.80;2.10;;;7.50;79.20;;;;;;4812115;29;20099;-83
2022/02/23 09:45:56;;;;;;;3.60;1.95;;;7.60;79.20;;;;;;4827146;29;20080;-82
2022/02/23 09:48:29;;;;;;;2.30;2.00;;;7.60;79.10;;;;;;4797981;29;20498;-86
2022/02/23 09:50:56;;;;;;;4.13;2.40;;;7.70;79.70;;;;;;4827354;29;20049;-84
2022/02/23 09:53:23;;;;;;;4.57;2.20;;;7.70;79.10;;;;;;4811927;29;20088;-84
2022/02/23 09:55:59;;;;;;;2.97;1.90;;;7.80;79.20;;;;;;4826605;29;20042;-84
2022/02/23 09:58:28;;;;;;;3.63;2.30;;;7.80;79.10;;;;;;4826779;29;20035;-84
2022/02/23 10:00:54;;;;;;;3.58;2.30;;;7.80;79.10;;;;;;4811941;29;20041;-85
2022/02/23 10:03:22;;;;;;;3.42;2.10;;;7.80;79.00;;;;;;4797437;29;20058;-85
2022/02/23 10:05:47;;;;;;;5.18;2.30;;;7.90;79.10;;;;;;4826955;29;20026;-85
2022/02/23 10:08:14;;;;;;;3.88;2.20;;;7.90;79.10;;;;;;4827484;29;20038;-85
2022/02/23 10:10:43;;;;;;;4.18;2.45;;;8.00;79.10;;;;;;4827981;29;20031;-86
2022/02/23 10:13:09;;;;;;;3.65;2.20;;;8.10;79.20;;;;;;4811473;29;20039;-85
2022/02/23 10:15:41;;;;;;;4.57;2.50;;;8.10;79.20;;;;;;4826729;29;20026;-85
2022/02/23 10:18:12;;;;;;;4.07;2.35;;;8.10;79.20;;;;;;4826746;29;20058;-84
2022/02/23 10:20:40;;;;;;;3.83;2.45;;;8.20;79.20;;;;;;4812085;29;20039;-85
2022/02/23 10:23:20;;;;;;;6.18;3.17;;;8.20;79.20;;;;;;4828061;29;20056;-84
2022/02/23 10:25:58;;;;;;;4.65;2.80;;;8.30;79.30;;;;;;4814540;29;20056;-85
2022/02/23 10:28:27;;;;;;;4.53;2.60;;;8.30;79.20;;;;;;4829453;29;20072;-85
2022/02/23 10:31:00;;;;;;;4.32;2.70;;;8.40;79.20;;;;;;4813917;29;20549;-85
2022/02/23 10:33:31;;;;;;;5.05;2.85;;;8.40;79.20;;;;;;4828928;29;20033;-84
2022/02/23 10:36:05;;;;;;;4.63;2.95;;;8.50;79.30;;;;;;4829349;29;20052;-84
2022/02/23 10:38:33;;;;;;;4.60;2.92;;;8.60;79.30;;;;;;4829077;29;20026;-84
2022/02/23 10:41:02;;;;;;;4.60;2.70;;;8.60;79.30;;;;;;4829165;29;20026;-84
2022/02/23 10:43:34;;;;;;;5.70;3.13;;;8.70;79.40;;;;;;4814217;29;20034;-84
2022/02/23 10:46:12;;;;;;;4.45;3.00;;;8.80;79.50;;;;;;4829506;29;20037;-84
2022/02/23 10:48:41;;;;;;;5.47;2.97;;;8.80;79.50;;;;;;4814100;29;20037;-84
2022/02/23 10:51:10;;;;;;;5.22;2.92;;;8.90;79.50;;;;;;4830246;29;20038;-85
2022/02/23 10:53:37;;;;;;;4.95;3.00;;;9.00;79.50;;;;;;4831814;29;20124;-85
2022/02/23 10:56:31;;;;;;;5.63;3.35;;;9.00;79.50;;;;;;4814394;29;20022;-84
2022/02/23 10:59:05;;;;;;;4.70;3.20;;;9.10;79.70;;;;;;4829032;29;20025;-85
2022/02/23 11:01:31;;;;;;;4.60;2.72;;;9.20;79.60;;;;;;4829022;29;20045;-84
2022/02/23 11:03:57;;;;;;;5.03;3.08;;;9.30;79.60;;;;;;4828762;29;20030;-85
2022/02/23 11:06:24;;;;;;;4.80;2.72;;;9.30;79.60;;;;;;4829093;29;20041;-85
2022/02/23 11:08:51;;;;;;;6.43;3.28;;;9.40;79.60;;;;;;4813748;29;20600;-86
2022/02/23 11:11:22;;;;;;;5.70;3.15;;;9.40;79.60;;;;;;4829187;29;20030;-86
2022/02/23 11:13:49;;;;;;;4.50;3.00;;;9.50;79.70;;;;;;4813829;29;20033;-84
2022/02/23 11:16:16;;;;;;;5.15;2.72;;;9.60;79.70;;;;;;4813791;29;20030;-85
2022/02/23 11:18:46;;;;;;;4.60;2.90;;;9.70;79.70;;;;;;4828549;29;20034;-86
2022/02/23 11:21:14;;;;;;;5.18;3.30;;;9.70;79.70;;;;;;4813362;29;20102;-85
2022/02/23 11:23:41;;;;;;;3.80;2.45;;;9.80;79.70;;;;;;4813362;29;20066;-85
2022/02/23 11:26:15;;;;;;;4.78;2.80;;;9.90;79.70;;;;;;4799370;29;20158;-85
2022/02/23 11:29:21;;;;;;;3.50;2.63;;;9.90;79.70;;;;;;4813258;29;20037;-85
2022/02/23 11:31:48;;;;;;;;;;;10.00;79.80;;;;;;4844919;29;20123;-84
2022/02/23 11:34:18;;;;;;;4.00;2.47;;;10.00;79.50;;;;;;4813305;29;19913;-85
2022/02/23 11:36:46;;;;;;;4.40;2.42;;;10.10;79.50;;;;;;4828515;29;20034;-84
2022/02/23 11:39:17;;;;;;;3.95;2.55;;;10.10;79.60;;;;;;4828829;29;20034;-89
2022/02/23 11:41:54;;;;;;;4.28;2.83;;;10.20;79.80;;;;;;4813527;29;20029;-85
2022/02/23 11:44:27;;;;;;;4.13;2.55;;;10.20;79.80;;;;;;4828161;29;20041;-79
2022/02/23 11:46:56;;;;;;;3.72;2.30;;;10.30;79.90;;;;;;4843937;29;20098;-84
2022/02/23 11:49:23;;;;;;;3.65;2.47;;;10.30;79.90;;;;;;4827718;29;20517;-82
2022/02/23 11:52:07;;;;;;;4.85;2.33;;;10.40;80.00;;;;;;4844224;29;20100;-82
2022/02/23 11:54:51;;;;;;;5.40;2.20;;;10.40;80.20;;;;;;4843770;29;20483;-80
2022/02/23 11:57:36;;;;;;;4.03;2.33;;;10.50;80.20;;;;;;4827119;29;20036;-80
2022/02/23 12:00:04;;;;;;;4.07;2.47;;;10.50;80.20;;;;;;4828065;29;20026;-82
2022/02/23 12:02:30;;;;;;;3.63;2.53;;;10.50;80.00;;;;;;4827695;29;20042;-85
2022/02/23 12:04:57;;;;;;;4.03;2.63;;;10.60;80.10;;;;;;4796725;29;20494;-79
2022/02/23 12:07:23;;;;;;;4.95;2.30;;;10.70;80.20;;;;;;4843202;29;20034;-79
2022/02/23 12:09:58;;;;;;;3.83;2.28;;;10.70;80.30;;;;;;4827264;29;20026;-80
2022/02/23 12:12:31;;;;;;;4.82;2.22;;;10.70;80.30;;;;;;4827363;29;20468;-82
2022/02/23 12:14:57;;;;;;;3.10;2.10;;;10.80;80.30;;;;;;4827175;29;20041;-81
2022/02/23 12:17:44;;;;;;;3.97;2.50;;;10.80;80.20;;;;;;4812431;29;20057;-81
2022/02/23 12:20:35;;;;;;;3.53;2.20;;;10.80;80.40;;;;;;4826807;29;20384;-83
2022/02/23 12:23:08;;;;;;;3.30;2.08;;;10.90;80.50;;;;;;4827737;29;20037;-82
2022/02/23 12:26:10;;;;;;;5.55;2.55;;;10.90;80.40;;;;;;4824536;29;20061;-81
2022/02/23 12:28:38;;;;;;;6.75;2.50;;;10.90;80.60;;;;;;4825246;29;20039;-82
2022/02/23 12:31:06;;;;;;;3.53;2.30;;;11.00;80.50;;;;;;4824096;29;20369;-79
2022/02/23 12:33:35;;;;;;;4.40;2.25;;;11.10;80.60;;;;;;4823659;29;20046;-78
2022/02/23 12:36:03;;;;;;;2.33;1.60;;;11.10;80.60;;;;;;4823634;29;20036;-82
2022/02/23 12:38:32;;;;;;;3.60;2.10;;;11.20;80.70;;;;;;4808152;29;20038;-79
2022/02/23 12:40:59;;;;;;;3.53;1.85;;;11.20;80.70;;;;;;4808300;29;20318;-79
2022/02/23 12:43:26;;;;;;;3.88;2.10;;;11.30;80.70;;;;;;4823551;29;20034;-79
2022/02/23 12:45:58;;;;;;;2.67;1.73;;;11.30;80.70;;;;;;4823596;29;20045;-80
2022/02/23 12:48:30;;;;;;;3.97;2.05;;;11.40;80.80;;;;;;4823449;29;20057;-80
2022/02/23 12:51:07;;;;;;;2.42;1.60;;;11.40;80.70;;;;;;4823651;29;20099;-79
2022/02/23 12:53:37;;;;;;;3.88;1.88;;;11.50;80.70;;;;;;4809093;29;20038;-79
2022/02/23 12:56:20;;;;;;;3.13;1.85;;;11.50;80.60;;;;;;4823574;29;20121;-84
2022/02/23 12:58:47;;;;;;;2.55;1.73;;;11.50;80.70;;;;;;4809349;29;20443;-89
2022/02/23 13:01:24;;;;;;;3.03;1.95;;;11.60;80.50;;;;;;4808161;29;20023;-79
2022/02/23 13:03:53;;;;;;;3.58;1.98;;;11.70;80.70;;;;;;4807880;29;20042;-81
2022/02/23 13:06:24;;;;;;;2.22;1.50;;;11.70;80.50;;;;;;4824001;29;20050;-80
2022/02/23 13:08:50;;;;;;;4.25;1.77;;;11.80;80.60;;;;;;4823043;29;20046;-80
2022/02/23 13:11:16;;;;;;;2.85;1.48;;;11.80;80.50;;;;;;4807993;29;20034;-81
2022/02/23 13:13:43;;;;;;;3.30;1.80;;;11.80;80.50;;;;;;4824588;29;20038;-81
2022/02/23 13:16:10;;;;;;;2.00;1.65;;;11.80;80.50;;;;;;4823508;29;20468;-81